sensor_id;sensor_type;location;lat;lon;timestamp;P1;durP1;ratioP1;P2;durP2;ratioP2
33690;SDS011;20026;50.058;18.428;2022-07-21T00:01:46;11.98;;;8.52;;
33690;SDS011;20026;50.058;18.428;2022-07-21T00:04:12;13.05;;;8.98;;
33690;SDS011;20026;50.058;18.428;2022-07-21T00:06:40;12.65;;;9.02;;
33690;SDS011;20026;50.058;18.428;2022-07-21T00:09:06;15.20;;;9.80;;
33690;SDS011;20026;50.058;18.428;2022-07-21T00:11:32;13.13;;;10.30;;
33690;SDS011;20026;50.058;18.428;2022-07-21T00:13:58;16.75;;;10.60;;
33690;SDS011;20026;50.058;18.428;2022-07-21T00:16:24;11.20;;;9.23;;
33690;SDS011;20026;50.058;18.428;2022-07-21T00:18:50;10.15;;;8.63;;
33690;SDS011;20026;50.058;18.428;2022-07-21T00:21:16;13.68;;;8.35;;
33690;SDS011;20026;50.058;18.428;2022-07-21T00:23:42;10.65;;;8.82;;
33690;SDS011;20026;50.058;18.428;2022-07-21T00:26:08;11.32;;;7.97;;
33690;SDS011;20026;50.058;18.428;2022-07-21T00:28:34;10.95;;;8.90;;
33690;SDS011;20026;50.058;18.428;2022-07-21T00:31:00;10.38;;;7.75;;
33690;SDS011;20026;50.058;18.428;2022-07-21T00:33:26;11.25;;;8.57;;
33690;SDS011;20026;50.058;18.428;2022-07-21T00:35:52;11.68;;;7.88;;
33690;SDS011;20026;50.058;18.428;2022-07-21T00:38:18;10.63;;;7.40;;
33690;SDS011;20026;50.058;18.428;2022-07-21T00:40:44;9.32;;;6.95;;
33690;SDS011;20026;50.058;18.428;2022-07-21T00:43:10;11.43;;;7.63;;
33690;SDS011;20026;50.058;18.428;2022-07-21T00:45:36;13.50;;;8.18;;
33690;SDS011;20026;50.058;18.428;2022-07-21T00:48:02;11.98;;;7.95;;
33690;SDS011;20026;50.058;18.428;2022-07-21T00:50:29;10.85;;;7.68;;
33690;SDS011;20026;50.058;18.428;2022-07-21T00:52:55;10.35;;;7.50;;
33690;SDS011;20026;50.058;18.428;2022-07-21T00:55:21;9.45;;;7.18;;
33690;SDS011;20026;50.058;18.428;2022-07-21T00:57:48;10.20;;;7.10;;
33690;SDS011;20026;50.058;18.428;2022-07-21T01:00:16;10.43;;;7.28;;
33690;SDS011;20026;50.058;18.428;2022-07-21T01:02:42;8.77;;;7.60;;
33690;SDS011;20026;50.058;18.428;2022-07-21T01:05:10;9.30;;;7.10;;
33690;SDS011;20026;50.058;18.428;2022-07-21T01:07:39;11.93;;;7.88;;
33690;SDS011;20026;50.058;18.428;2022-07-21T01:10:05;11.63;;;7.25;;
33690;SDS011;20026;50.058;18.428;2022-07-21T01:12:32;9.73;;;7.80;;
33690;SDS011;20026;50.058;18.428;2022-07-21T01:14:58;9.48;;;7.82;;
33690;SDS011;20026;50.058;18.428;2022-07-21T01:17:24;12.60;;;8.07;;
33690;SDS011;20026;50.058;18.428;2022-07-21T01:19:50;11.27;;;7.68;;
33690;SDS011;20026;50.058;18.428;2022-07-21T01:22:16;10.18;;;7.93;;
33690;SDS011;20026;50.058;18.428;2022-07-21T01:24:43;11.15;;;8.23;;
33690;SDS011;20026;50.058;18.428;2022-07-21T01:27:09;10.93;;;7.63;;
33690;SDS011;20026;50.058;18.428;2022-07-21T01:29:35;9.77;;;7.70;;
33690;SDS011;20026;50.058;18.428;2022-07-21T01:32:01;10.55;;;7.30;;
33690;SDS011;20026;50.058;18.428;2022-07-21T01:34:28;10.85;;;7.82;;
33690;SDS011;20026;50.058;18.428;2022-07-21T01:36:54;9.95;;;8.30;;
33690;SDS011;20026;50.058;18.428;2022-07-21T01:39:20;10.52;;;8.10;;
33690;SDS011;20026;50.058;18.428;2022-07-21T01:42:05;7.70;;;6.78;;
33690;SDS011;20026;50.058;18.428;2022-07-21T01:44:31;11.00;;;7.65;;
33690;SDS011;20026;50.058;18.428;2022-07-21T01:46:57;11.23;;;8.27;;
33690;SDS011;20026;50.058;18.428;2022-07-21T01:49:23;10.95;;;7.85;;
33690;SDS011;20026;50.058;18.428;2022-07-21T01:51:49;9.60;;;7.82;;
33690;SDS011;20026;50.058;18.428;2022-07-21T01:54:16;10.80;;;7.60;;
33690;SDS011;20026;50.058;18.428;2022-07-21T01:56:42;9.15;;;7.47;;
33690;SDS011;20026;50.058;18.428;2022-07-21T01:59:08;9.07;;;7.15;;
33690;SDS011;20026;50.058;18.428;2022-07-21T02:01:34;9.98;;;7.53;;
33690;SDS011;20026;50.058;18.428;2022-07-21T02:04:01;9.27;;;7.32;;
33690;SDS011;20026;50.058;18.428;2022-07-21T02:06:27;10.05;;;7.05;;
33690;SDS011;20026;50.058;18.428;2022-07-21T02:08:54;8.48;;;7.28;;
33690;SDS011;20026;50.058;18.428;2022-07-21T02:11:20;9.95;;;7.25;;
33690;SDS011;20026;50.058;18.428;2022-07-21T02:13:46;10.70;;;7.90;;
33690;SDS011;20026;50.058;18.428;2022-07-21T02:16:12;10.73;;;7.57;;
33690;SDS011;20026;50.058;18.428;2022-07-21T02:18:38;9.10;;;6.85;;
33690;SDS011;20026;50.058;18.428;2022-07-21T02:21:05;9.00;;;7.10;;
33690;SDS011;20026;50.058;18.428;2022-07-21T02:23:31;8.88;;;7.78;;
33690;SDS011;20026;50.058;18.428;2022-07-21T02:25:58;9.80;;;7.55;;
33690;SDS011;20026;50.058;18.428;2022-07-21T02:28:24;10.80;;;6.72;;
33690;SDS011;20026;50.058;18.428;2022-07-21T02:30:51;9.48;;;7.72;;
33690;SDS011;20026;50.058;18.428;2022-07-21T02:33:17;9.10;;;7.07;;
33690;SDS011;20026;50.058;18.428;2022-07-21T02:35:43;9.32;;;7.15;;
33690;SDS011;20026;50.058;18.428;2022-07-21T02:38:10;10.13;;;7.97;;
33690;SDS011;20026;50.058;18.428;2022-07-21T02:40:37;10.20;;;7.40;;
33690;SDS011;20026;50.058;18.428;2022-07-21T02:43:03;9.40;;;7.43;;
33690;SDS011;20026;50.058;18.428;2022-07-21T02:45:30;11.50;;;7.15;;
33690;SDS011;20026;50.058;18.428;2022-07-21T02:50:24;10.20;;;7.22;;
33690;SDS011;20026;50.058;18.428;2022-07-21T02:52:53;9.18;;;7.20;;
33690;SDS011;20026;50.058;18.428;2022-07-21T02:55:19;10.77;;;7.70;;
33690;SDS011;20026;50.058;18.428;2022-07-21T02:57:45;9.35;;;7.40;;
33690;SDS011;20026;50.058;18.428;2022-07-21T03:00:11;11.52;;;7.72;;
33690;SDS011;20026;50.058;18.428;2022-07-21T03:02:37;8.75;;;7.15;;
33690;SDS011;20026;50.058;18.428;2022-07-21T03:05:04;9.80;;;7.63;;
33690;SDS011;20026;50.058;18.428;2022-07-21T03:07:30;10.45;;;7.35;;
33690;SDS011;20026;50.058;18.428;2022-07-21T03:09:56;9.98;;;7.55;;
33690;SDS011;20026;50.058;18.428;2022-07-21T03:12:22;9.70;;;7.78;;
33690;SDS011;20026;50.058;18.428;2022-07-21T03:14:48;9.35;;;7.90;;
33690;SDS011;20026;50.058;18.428;2022-07-21T03:17:14;9.55;;;7.47;;
33690;SDS011;20026;50.058;18.428;2022-07-21T03:19:40;10.25;;;7.88;;
33690;SDS011;20026;50.058;18.428;2022-07-21T03:22:06;10.13;;;7.43;;
33690;SDS011;20026;50.058;18.428;2022-07-21T03:24:32;11.50;;;7.97;;
33690;SDS011;20026;50.058;18.428;2022-07-21T03:26:58;11.63;;;8.68;;
33690;SDS011;20026;50.058;18.428;2022-07-21T03:29:24;10.10;;;7.93;;
33690;SDS011;20026;50.058;18.428;2022-07-21T03:31:50;11.90;;;7.80;;
33690;SDS011;20026;50.058;18.428;2022-07-21T03:34:16;14.18;;;7.97;;
33690;SDS011;20026;50.058;18.428;2022-07-21T03:36:42;11.45;;;8.05;;
33690;SDS011;20026;50.058;18.428;2022-07-21T03:39:08;10.07;;;7.45;;
33690;SDS011;20026;50.058;18.428;2022-07-21T03:41:34;11.77;;;8.50;;
33690;SDS011;20026;50.058;18.428;2022-07-21T03:44:00;11.25;;;8.52;;
33690;SDS011;20026;50.058;18.428;2022-07-21T03:46:26;10.02;;;7.53;;
33690;SDS011;20026;50.058;18.428;2022-07-21T03:48:51;11.90;;;7.72;;
33690;SDS011;20026;50.058;18.428;2022-07-21T03:51:17;11.45;;;8.48;;
33690;SDS011;20026;50.058;18.428;2022-07-21T03:53:43;9.35;;;7.35;;
33690;SDS011;20026;50.058;18.428;2022-07-21T03:56:09;13.02;;;8.15;;
33690;SDS011;20026;50.058;18.428;2022-07-21T03:58:35;11.15;;;7.95;;
33690;SDS011;20026;50.058;18.428;2022-07-21T04:01:01;10.45;;;7.70;;
33690;SDS011;20026;50.058;18.428;2022-07-21T04:03:27;12.02;;;7.30;;
33690;SDS011;20026;50.058;18.428;2022-07-21T04:05:55;11.40;;;7.47;;
33690;SDS011;20026;50.058;18.428;2022-07-21T04:08:21;12.05;;;7.53;;
33690;SDS011;20026;50.058;18.428;2022-07-21T04:10:47;10.40;;;7.60;;
33690;SDS011;20026;50.058;18.428;2022-07-21T04:13:13;15.27;;;8.20;;
33690;SDS011;20026;50.058;18.428;2022-07-21T04:15:40;11.63;;;7.43;;
33690;SDS011;20026;50.058;18.428;2022-07-21T04:18:06;13.68;;;7.88;;
33690;SDS011;20026;50.058;18.428;2022-07-21T04:20:32;13.57;;;7.78;;
33690;SDS011;20026;50.058;18.428;2022-07-21T04:22:59;12.57;;;7.95;;
33690;SDS011;20026;50.058;18.428;2022-07-21T04:25:25;13.15;;;8.60;;
33690;SDS011;20026;50.058;18.428;2022-07-21T04:27:51;12.30;;;8.00;;
33690;SDS011;20026;50.058;18.428;2022-07-21T04:30:19;11.00;;;8.18;;
33690;SDS011;20026;50.058;18.428;2022-07-21T04:32:45;13.73;;;8.70;;
33690;SDS011;20026;50.058;18.428;2022-07-21T04:35:11;19.00;;;9.50;;
33690;SDS011;20026;50.058;18.428;2022-07-21T04:37:37;16.00;;;9.38;;
33690;SDS011;20026;50.058;18.428;2022-07-21T04:40:05;13.60;;;8.18;;
33690;SDS011;20026;50.058;18.428;2022-07-21T04:42:31;17.63;;;9.30;;
33690;SDS011;20026;50.058;18.428;2022-07-21T04:44:57;16.48;;;9.38;;
33690;SDS011;20026;50.058;18.428;2022-07-21T04:47:23;18.10;;;9.80;;
33690;SDS011;20026;50.058;18.428;2022-07-21T04:54:09;24.20;;;11.18;;
33690;SDS011;20026;50.058;18.428;2022-07-21T04:56:38;18.58;;;10.30;;
33690;SDS011;20026;50.058;18.428;2022-07-21T04:59:04;17.63;;;10.75;;
33690;SDS011;20026;50.058;18.428;2022-07-21T05:01:30;19.80;;;11.27;;
33690;SDS011;20026;50.058;18.428;2022-07-21T05:03:56;20.52;;;11.23;;
33690;SDS011;20026;50.058;18.428;2022-07-21T05:06:22;18.60;;;11.43;;
33690;SDS011;20026;50.058;18.428;2022-07-21T05:08:48;14.90;;;10.05;;
33690;SDS011;20026;50.058;18.428;2022-07-21T05:11:14;16.13;;;9.40;;
33690;SDS011;20026;50.058;18.428;2022-07-21T05:13:40;17.85;;;9.55;;
33690;SDS011;20026;50.058;18.428;2022-07-21T05:16:06;17.98;;;10.40;;
33690;SDS011;20026;50.058;18.428;2022-07-21T05:18:32;18.20;;;10.02;;
33690;SDS011;20026;50.058;18.428;2022-07-21T05:20:58;18.20;;;9.10;;
33690;SDS011;20026;50.058;18.428;2022-07-21T05:23:24;15.32;;;10.05;;
33690;SDS011;20026;50.058;18.428;2022-07-21T05:25:50;16.65;;;9.38;;
33690;SDS011;20026;50.058;18.428;2022-07-21T05:28:16;15.13;;;8.88;;
33690;SDS011;20026;50.058;18.428;2022-07-21T05:30:43;17.27;;;9.30;;
33690;SDS011;20026;50.058;18.428;2022-07-21T05:33:09;15.57;;;8.65;;
33690;SDS011;20026;50.058;18.428;2022-07-21T05:35:35;16.33;;;9.32;;
33690;SDS011;20026;50.058;18.428;2022-07-21T05:38:01;16.23;;;8.98;;
33690;SDS011;20026;50.058;18.428;2022-07-21T05:40:27;16.15;;;8.23;;
33690;SDS011;20026;50.058;18.428;2022-07-21T05:42:53;13.15;;;8.43;;
33690;SDS011;20026;50.058;18.428;2022-07-21T05:45:19;13.23;;;8.45;;
33690;SDS011;20026;50.058;18.428;2022-07-21T05:47:45;14.10;;;8.70;;
33690;SDS011;20026;50.058;18.428;2022-07-21T05:50:11;14.60;;;8.48;;
33690;SDS011;20026;50.058;18.428;2022-07-21T05:52:37;13.63;;;8.68;;
33690;SDS011;20026;50.058;18.428;2022-07-21T05:55:04;13.73;;;8.13;;
33690;SDS011;20026;50.058;18.428;2022-07-21T05:57:31;12.27;;;8.02;;
33690;SDS011;20026;50.058;18.428;2022-07-21T05:59:57;12.23;;;8.20;;
33690;SDS011;20026;50.058;18.428;2022-07-21T06:02:23;13.63;;;8.13;;
33690;SDS011;20026;50.058;18.428;2022-07-21T06:04:49;13.10;;;8.68;;
33690;SDS011;20026;50.058;18.428;2022-07-21T06:07:15;14.00;;;8.35;;
33690;SDS011;20026;50.058;18.428;2022-07-21T06:09:41;12.30;;;8.32;;
33690;SDS011;20026;50.058;18.428;2022-07-21T06:12:07;12.07;;;8.32;;
33690;SDS011;20026;50.058;18.428;2022-07-21T06:14:34;13.50;;;8.35;;
33690;SDS011;20026;50.058;18.428;2022-07-21T06:17:00;15.50;;;8.73;;
33690;SDS011;20026;50.058;18.428;2022-07-21T06:19:26;16.23;;;8.70;;
33690;SDS011;20026;50.058;18.428;2022-07-21T06:21:52;15.07;;;8.38;;
33690;SDS011;20026;50.058;18.428;2022-07-21T06:24:18;14.18;;;8.45;;
33690;SDS011;20026;50.058;18.428;2022-07-21T06:26:47;14.73;;;8.30;;
33690;SDS011;20026;50.058;18.428;2022-07-21T06:29:13;12.25;;;8.52;;
33690;SDS011;20026;50.058;18.428;2022-07-21T06:31:39;12.82;;;8.40;;
33690;SDS011;20026;50.058;18.428;2022-07-21T06:34:04;14.60;;;8.27;;
33690;SDS011;20026;50.058;18.428;2022-07-21T06:36:30;15.43;;;7.90;;
33690;SDS011;20026;50.058;18.428;2022-07-21T06:38:56;14.63;;;7.95;;
33690;SDS011;20026;50.058;18.428;2022-07-21T06:41:22;13.35;;;8.00;;
33690;SDS011;20026;50.058;18.428;2022-07-21T06:43:48;14.98;;;8.48;;
33690;SDS011;20026;50.058;18.428;2022-07-21T06:46:14;14.27;;;8.10;;
33690;SDS011;20026;50.058;18.428;2022-07-21T06:48:40;14.18;;;7.72;;
33690;SDS011;20026;50.058;18.428;2022-07-21T06:51:06;12.57;;;7.85;;
33690;SDS011;20026;50.058;18.428;2022-07-21T06:53:32;15.82;;;8.15;;
33690;SDS011;20026;50.058;18.428;2022-07-21T06:55:58;13.90;;;8.05;;
33690;SDS011;20026;50.058;18.428;2022-07-21T06:58:24;13.07;;;7.78;;
33690;SDS011;20026;50.058;18.428;2022-07-21T07:00:51;10.90;;;7.65;;
33690;SDS011;20026;50.058;18.428;2022-07-21T07:03:17;16.95;;;8.07;;
33690;SDS011;20026;50.058;18.428;2022-07-21T07:05:44;15.18;;;8.27;;
33690;SDS011;20026;50.058;18.428;2022-07-21T07:08:11;10.95;;;7.93;;
33690;SDS011;20026;50.058;18.428;2022-07-21T07:10:37;12.10;;;8.40;;
33690;SDS011;20026;50.058;18.428;2022-07-21T07:13:03;12.50;;;8.27;;
33690;SDS011;20026;50.058;18.428;2022-07-21T07:15:29;12.60;;;8.10;;
33690;SDS011;20026;50.058;18.428;2022-07-21T07:17:55;12.90;;;8.30;;
33690;SDS011;20026;50.058;18.428;2022-07-21T07:20:21;11.98;;;7.50;;
33690;SDS011;20026;50.058;18.428;2022-07-21T07:22:48;12.63;;;8.20;;
33690;SDS011;20026;50.058;18.428;2022-07-21T07:25:14;11.85;;;8.10;;
33690;SDS011;20026;50.058;18.428;2022-07-21T07:27:43;15.52;;;7.65;;
33690;SDS011;20026;50.058;18.428;2022-07-21T07:30:10;10.50;;;7.07;;
33690;SDS011;20026;50.058;18.428;2022-07-21T07:32:36;14.18;;;7.85;;
33690;SDS011;20026;50.058;18.428;2022-07-21T07:35:02;11.02;;;7.20;;
33690;SDS011;20026;50.058;18.428;2022-07-21T07:37:28;10.38;;;7.15;;
33690;SDS011;20026;50.058;18.428;2022-07-21T07:42:39;13.82;;;7.95;;
33690;SDS011;20026;50.058;18.428;2022-07-21T07:45:05;14.32;;;7.28;;
33690;SDS011;20026;50.058;18.428;2022-07-21T07:47:31;9.68;;;7.82;;
33690;SDS011;20026;50.058;18.428;2022-07-21T07:49:58;11.30;;;7.43;;
33690;SDS011;20026;50.058;18.428;2022-07-21T07:52:24;12.60;;;7.78;;
33690;SDS011;20026;50.058;18.428;2022-07-21T07:54:50;12.35;;;7.70;;
33690;SDS011;20026;50.058;18.428;2022-07-21T07:57:16;10.13;;;6.60;;
33690;SDS011;20026;50.058;18.428;2022-07-21T07:59:43;11.68;;;7.13;;
33690;SDS011;20026;50.058;18.428;2022-07-21T08:02:09;12.00;;;7.07;;
33690;SDS011;20026;50.058;18.428;2022-07-21T08:04:35;11.48;;;7.13;;
33690;SDS011;20026;50.058;18.428;2022-07-21T08:07:04;9.05;;;6.70;;
33690;SDS011;20026;50.058;18.428;2022-07-21T08:09:30;10.07;;;6.88;;
33690;SDS011;20026;50.058;18.428;2022-07-21T08:11:56;10.25;;;6.88;;
33690;SDS011;20026;50.058;18.428;2022-07-21T08:14:22;9.27;;;7.00;;
33690;SDS011;20026;50.058;18.428;2022-07-21T08:16:48;11.35;;;6.82;;
33690;SDS011;20026;50.058;18.428;2022-07-21T08:19:14;8.40;;;7.15;;
33690;SDS011;20026;50.058;18.428;2022-07-21T08:21:40;9.75;;;7.22;;
33690;SDS011;20026;50.058;18.428;2022-07-21T08:24:06;8.77;;;6.88;;
33690;SDS011;20026;50.058;18.428;2022-07-21T08:26:33;7.75;;;6.68;;
33690;SDS011;20026;50.058;18.428;2022-07-21T08:28:59;10.48;;;7.95;;
33690;SDS011;20026;50.058;18.428;2022-07-21T08:31:25;12.18;;;7.15;;
33690;SDS011;20026;50.058;18.428;2022-07-21T08:33:51;10.55;;;7.35;;
33690;SDS011;20026;50.058;18.428;2022-07-21T08:36:17;10.15;;;6.63;;
33690;SDS011;20026;50.058;18.428;2022-07-21T08:38:43;8.88;;;6.55;;
33690;SDS011;20026;50.058;18.428;2022-07-21T08:41:10;12.75;;;6.47;;
33690;SDS011;20026;50.058;18.428;2022-07-21T08:43:36;10.95;;;6.63;;
33690;SDS011;20026;50.058;18.428;2022-07-21T08:46:02;8.80;;;6.65;;
33690;SDS011;20026;50.058;18.428;2022-07-21T08:48:28;9.63;;;6.93;;
33690;SDS011;20026;50.058;18.428;2022-07-21T08:50:55;11.75;;;7.57;;
33690;SDS011;20026;50.058;18.428;2022-07-21T08:53:21;11.63;;;8.23;;
33690;SDS011;20026;50.058;18.428;2022-07-21T08:55:47;10.93;;;8.35;;
33690;SDS011;20026;50.058;18.428;2022-07-21T08:58:13;8.68;;;7.30;;
33690;SDS011;20026;50.058;18.428;2022-07-21T09:00:41;14.52;;;9.10;;
33690;SDS011;20026;50.058;18.428;2022-07-21T09:03:11;13.88;;;8.80;;
33690;SDS011;20026;50.058;18.428;2022-07-21T09:05:37;12.27;;;8.10;;
33690;SDS011;20026;50.058;18.428;2022-07-21T09:08:03;11.75;;;8.02;;
33690;SDS011;20026;50.058;18.428;2022-07-21T09:10:30;12.60;;;8.85;;
33690;SDS011;20026;50.058;18.428;2022-07-21T09:12:57;9.77;;;8.10;;
33690;SDS011;20026;50.058;18.428;2022-07-21T09:15:24;10.27;;;8.75;;
33690;SDS011;20026;50.058;18.428;2022-07-21T09:18:07;10.10;;;7.55;;
33690;SDS011;20026;50.058;18.428;2022-07-21T09:20:34;9.63;;;7.68;;
33690;SDS011;20026;50.058;18.428;2022-07-21T09:23:02;10.00;;;7.28;;
33690;SDS011;20026;50.058;18.428;2022-07-21T09:25:35;10.88;;;7.43;;
33690;SDS011;20026;50.058;18.428;2022-07-21T09:28:08;13.82;;;6.70;;
33690;SDS011;20026;50.058;18.428;2022-07-21T09:33:23;11.07;;;6.78;;
33690;SDS011;20026;50.058;18.428;2022-07-21T09:38:19;7.43;;;6.00;;
33690;SDS011;20026;50.058;18.428;2022-07-21T09:40:48;9.23;;;6.13;;
33690;SDS011;20026;50.058;18.428;2022-07-21T09:45:59;7.65;;;5.78;;
33690;SDS011;20026;50.058;18.428;2022-07-21T09:48:33;8.35;;;5.93;;
33690;SDS011;20026;50.058;18.428;2022-07-21T09:51:18;10.15;;;5.97;;
33690;SDS011;20026;50.058;18.428;2022-07-21T09:53:48;6.75;;;5.80;;
33690;SDS011;20026;50.058;18.428;2022-07-21T09:56:15;10.65;;;5.88;;
33690;SDS011;20026;50.058;18.428;2022-07-21T09:58:42;10.38;;;5.97;;
33690;SDS011;20026;50.058;18.428;2022-07-21T10:01:08;8.57;;;6.10;;
33690;SDS011;20026;50.058;18.428;2022-07-21T10:03:34;10.95;;;5.60;;
33690;SDS011;20026;50.058;18.428;2022-07-21T10:06:00;8.32;;;4.95;;
33690;SDS011;20026;50.058;18.428;2022-07-21T10:08:26;6.03;;;5.38;;
33690;SDS011;20026;50.058;18.428;2022-07-21T10:10:52;9.13;;;5.50;;
33690;SDS011;20026;50.058;18.428;2022-07-21T10:13:18;6.15;;;5.22;;
33690;SDS011;20026;50.058;18.428;2022-07-21T10:15:45;6.78;;;4.97;;
33690;SDS011;20026;50.058;18.428;2022-07-21T10:18:12;7.65;;;5.57;;
33690;SDS011;20026;50.058;18.428;2022-07-21T10:20:39;7.70;;;5.15;;
33690;SDS011;20026;50.058;18.428;2022-07-21T10:23:06;7.15;;;4.82;;
33690;SDS011;20026;50.058;18.428;2022-07-21T10:25:36;8.70;;;5.07;;
33690;SDS011;20026;50.058;18.428;2022-07-21T10:30:38;7.20;;;4.90;;
33690;SDS011;20026;50.058;18.428;2022-07-21T10:33:04;8.93;;;4.47;;
33690;SDS011;20026;50.058;18.428;2022-07-21T10:35:31;7.57;;;4.60;;
33690;SDS011;20026;50.058;18.428;2022-07-21T10:37:58;8.32;;;5.15;;
33690;SDS011;20026;50.058;18.428;2022-07-21T10:45:35;6.78;;;5.07;;
33690;SDS011;20026;50.058;18.428;2022-07-21T10:48:03;8.27;;;5.60;;
33690;SDS011;20026;50.058;18.428;2022-07-21T10:50:30;7.50;;;4.90;;
33690;SDS011;20026;50.058;18.428;2022-07-21T10:52:57;7.15;;;5.43;;
33690;SDS011;20026;50.058;18.428;2022-07-21T10:55:23;10.18;;;5.50;;
33690;SDS011;20026;50.058;18.428;2022-07-21T10:58:09;6.70;;;4.93;;
33690;SDS011;20026;50.058;18.428;2022-07-21T11:00:36;6.53;;;5.07;;
33690;SDS011;20026;50.058;18.428;2022-07-21T11:03:04;7.93;;;5.40;;
33690;SDS011;20026;50.058;18.428;2022-07-21T11:05:31;6.40;;;4.88;;
33690;SDS011;20026;50.058;18.428;2022-07-21T11:08:14;8.15;;;4.60;;
33690;SDS011;20026;50.058;18.428;2022-07-21T11:10:41;5.57;;;4.38;;
33690;SDS011;20026;50.058;18.428;2022-07-21T11:13:08;7.57;;;4.85;;
33690;SDS011;20026;50.058;18.428;2022-07-21T11:15:53;6.85;;;4.55;;
33690;SDS011;20026;50.058;18.428;2022-07-21T11:18:21;7.88;;;5.00;;
33690;SDS011;20026;50.058;18.428;2022-07-21T11:21:07;7.50;;;4.60;;
33690;SDS011;20026;50.058;18.428;2022-07-21T11:23:34;5.40;;;4.07;;
33690;SDS011;20026;50.058;18.428;2022-07-21T11:26:00;10.00;;;4.72;;
33690;SDS011;20026;50.058;18.428;2022-07-21T11:28:26;6.80;;;4.10;;
33690;SDS011;20026;50.058;18.428;2022-07-21T11:33:51;9.95;;;4.30;;
33690;SDS011;20026;50.058;18.428;2022-07-21T11:36:27;7.47;;;4.25;;
33690;SDS011;20026;50.058;18.428;2022-07-21T11:39:00;9.00;;;4.45;;
33690;SDS011;20026;50.058;18.428;2022-07-21T11:41:26;8.23;;;4.50;;
33690;SDS011;20026;50.058;18.428;2022-07-21T11:43:52;8.02;;;4.55;;
33690;SDS011;20026;50.058;18.428;2022-07-21T11:46:18;7.03;;;4.50;;
33690;SDS011;20026;50.058;18.428;2022-07-21T11:48:44;8.63;;;4.70;;
33690;SDS011;20026;50.058;18.428;2022-07-21T11:51:11;10.57;;;4.90;;
33690;SDS011;20026;50.058;18.428;2022-07-21T11:53:42;9.30;;;5.00;;
33690;SDS011;20026;50.058;18.428;2022-07-21T11:56:15;5.93;;;4.82;;
33690;SDS011;20026;50.058;18.428;2022-07-21T11:58:44;9.70;;;5.00;;
33690;SDS011;20026;50.058;18.428;2022-07-21T12:01:10;7.13;;;4.40;;
33690;SDS011;20026;50.058;18.428;2022-07-21T12:03:48;7.32;;;4.97;;
33690;SDS011;20026;50.058;18.428;2022-07-21T12:06:15;10.05;;;5.93;;
33690;SDS011;20026;50.058;18.428;2022-07-21T12:08:43;7.60;;;4.75;;
33690;SDS011;20026;50.058;18.428;2022-07-21T12:11:09;7.15;;;4.88;;
33690;SDS011;20026;50.058;18.428;2022-07-21T12:13:55;10.48;;;4.88;;
33690;SDS011;20026;50.058;18.428;2022-07-21T12:16:21;8.77;;;4.90;;
33690;SDS011;20026;50.058;18.428;2022-07-21T12:18:48;5.38;;;4.60;;
33690;SDS011;20026;50.058;18.428;2022-07-21T12:21:14;7.13;;;4.75;;
33690;SDS011;20026;50.058;18.428;2022-07-21T12:23:42;9.10;;;4.90;;
33690;SDS011;20026;50.058;18.428;2022-07-21T12:26:19;10.10;;;4.82;;
33690;SDS011;20026;50.058;18.428;2022-07-21T12:28:46;7.45;;;4.40;;
33690;SDS011;20026;50.058;18.428;2022-07-21T12:31:13;6.18;;;4.65;;
33690;SDS011;20026;50.058;18.428;2022-07-21T12:33:41;9.68;;;4.20;;
33690;SDS011;20026;50.058;18.428;2022-07-21T12:36:08;8.07;;;4.43;;
33690;SDS011;20026;50.058;18.428;2022-07-21T12:38:41;6.93;;;4.05;;
33690;SDS011;20026;50.058;18.428;2022-07-21T12:41:08;7.25;;;4.53;;
33690;SDS011;20026;50.058;18.428;2022-07-21T12:43:35;7.93;;;4.10;;
33690;SDS011;20026;50.058;18.428;2022-07-21T12:46:02;7.22;;;4.43;;
33690;SDS011;20026;50.058;18.428;2022-07-21T12:48:29;8.68;;;4.03;;
33690;SDS011;20026;50.058;18.428;2022-07-21T12:51:06;5.82;;;3.97;;
33690;SDS011;20026;50.058;18.428;2022-07-21T12:53:35;6.97;;;4.13;;
33690;SDS011;20026;50.058;18.428;2022-07-21T12:56:02;5.53;;;4.15;;
33690;SDS011;20026;50.058;18.428;2022-07-21T12:58:28;11.52;;;3.92;;
33690;SDS011;20026;50.058;18.428;2022-07-21T13:00:54;8.85;;;3.80;;
33690;SDS011;20026;50.058;18.428;2022-07-21T13:03:20;7.25;;;4.10;;
33690;SDS011;20026;50.058;18.428;2022-07-21T13:05:46;6.15;;;4.28;;
33690;SDS011;20026;50.058;18.428;2022-07-21T13:08:12;6.05;;;3.75;;
33690;SDS011;20026;50.058;18.428;2022-07-21T13:10:38;6.38;;;3.92;;
33690;SDS011;20026;50.058;18.428;2022-07-21T13:13:04;9.50;;;4.40;;
33690;SDS011;20026;50.058;18.428;2022-07-21T13:15:30;8.23;;;4.43;;
33690;SDS011;20026;50.058;18.428;2022-07-21T13:17:56;5.57;;;4.30;;
33690;SDS011;20026;50.058;18.428;2022-07-21T13:20:22;8.80;;;4.22;;
33690;SDS011;20026;50.058;18.428;2022-07-21T13:22:48;8.35;;;4.15;;
33690;SDS011;20026;50.058;18.428;2022-07-21T13:25:14;5.60;;;4.10;;
33690;SDS011;20026;50.058;18.428;2022-07-21T13:27:40;6.40;;;3.72;;
33690;SDS011;20026;50.058;18.428;2022-07-21T13:30:06;5.88;;;3.85;;
33690;SDS011;20026;50.058;18.428;2022-07-21T13:32:33;6.78;;;3.58;;
33690;SDS011;20026;50.058;18.428;2022-07-21T13:34:59;8.30;;;3.63;;
33690;SDS011;20026;50.058;18.428;2022-07-21T13:37:26;5.72;;;3.60;;
33690;SDS011;20026;50.058;18.428;2022-07-21T13:39:52;5.63;;;3.75;;
33690;SDS011;20026;50.058;18.428;2022-07-21T13:42:18;6.07;;;3.60;;
33690;SDS011;20026;50.058;18.428;2022-07-21T13:44:44;4.50;;;3.58;;
33690;SDS011;20026;50.058;18.428;2022-07-21T13:47:10;5.18;;;3.63;;
33690;SDS011;20026;50.058;18.428;2022-07-21T13:49:36;6.63;;;3.58;;
33690;SDS011;20026;50.058;18.428;2022-07-21T13:52:02;7.57;;;3.58;;
33690;SDS011;20026;50.058;18.428;2022-07-21T13:54:28;7.30;;;3.80;;
33690;SDS011;20026;50.058;18.428;2022-07-21T13:56:54;5.72;;;3.67;;
33690;SDS011;20026;50.058;18.428;2022-07-21T13:59:21;8.57;;;3.58;;
33690;SDS011;20026;50.058;18.428;2022-07-21T14:01:47;5.78;;;3.75;;
33690;SDS011;20026;50.058;18.428;2022-07-21T14:04:13;6.60;;;3.80;;
33690;SDS011;20026;50.058;18.428;2022-07-21T14:06:39;8.93;;;4.07;;
33690;SDS011;20026;50.058;18.428;2022-07-21T14:09:05;5.60;;;3.85;;
33690;SDS011;20026;50.058;18.428;2022-07-21T14:11:31;6.57;;;3.90;;
33690;SDS011;20026;50.058;18.428;2022-07-21T14:13:57;8.20;;;4.30;;
33690;SDS011;20026;50.058;18.428;2022-07-21T14:16:24;8.88;;;4.15;;
33690;SDS011;20026;50.058;18.428;2022-07-21T14:18:50;4.97;;;3.92;;
33690;SDS011;20026;50.058;18.428;2022-07-21T14:21:15;7.30;;;3.78;;
33690;SDS011;20026;50.058;18.428;2022-07-21T14:23:41;8.20;;;3.50;;
33690;SDS011;20026;50.058;18.428;2022-07-21T14:26:07;5.88;;;3.47;;
33690;SDS011;20026;50.058;18.428;2022-07-21T14:28:33;7.65;;;3.92;;
33690;SDS011;20026;50.058;18.428;2022-07-21T14:30:59;10.00;;;4.10;;
33690;SDS011;20026;50.058;18.428;2022-07-21T14:33:25;7.82;;;3.90;;
33690;SDS011;20026;50.058;18.428;2022-07-21T14:35:51;6.63;;;3.72;;
33690;SDS011;20026;50.058;18.428;2022-07-21T14:38:17;5.75;;;4.05;;
33690;SDS011;20026;50.058;18.428;2022-07-21T14:40:45;6.13;;;3.90;;
33690;SDS011;20026;50.058;18.428;2022-07-21T14:43:11;5.20;;;3.85;;
33690;SDS011;20026;50.058;18.428;2022-07-21T14:45:37;5.30;;;3.67;;
33690;SDS011;20026;50.058;18.428;2022-07-21T14:48:03;5.63;;;3.28;;
33690;SDS011;20026;50.058;18.428;2022-07-21T14:50:29;6.10;;;3.95;;
33690;SDS011;20026;50.058;18.428;2022-07-21T14:52:56;5.10;;;3.70;;